Time;durP1;ratioP1;P1;durP2;ratioP2;P2;SDS_P1;SDS_P2;PMS_P1;PMS_P2;Temp;Humidity;BMP_temperature;BMP_pressure;BME280_temperature;BME280_humidity;BME280_pressure;Samples;Min_cycle;Max_cycle;Signal;HPM_P1;HPM_P2
2022/04/29 00:04:24;;;;;;;29.63;13.87;;;;;;;9.70;62.92;101907.09;5212621;56;1138961;-68
2022/04/29 00:09:30;;;;;;;33.70;16.17;;;;;;;9.65;62.68;101908.64;5219653;56;1139005;-69
2022/04/29 00:14:36;;;;;;;27.37;12.50;;;;;;;9.60;62.69;101905.88;5219783;56;1139006;-70
2022/04/29 00:19:43;;;;;;;26.45;12.10;;;;;;;9.55;62.72;101907.88;5219645;56;1139013;-69
2022/04/29 00:24:48;;;;;;;28.07;11.57;;;;;;;9.53;62.65;101909.28;5219683;56;1139083;-68
2022/04/29 00:29:54;;;;;;;32.73;13.50;;;;;;;9.48;62.60;101927.13;5219693;56;1139024;-70
2022/04/29 00:35:00;;;;;;;34.57;14.60;;;;;;;9.36;62.56;101907.48;5219867;56;1138964;-69
2022/04/29 00:40:07;;;;;;;29.17;12.80;;;;;;;9.25;62.53;101913.78;5219751;56;1138991;-69
2022/04/29 00:45:15;;;;;;;33.97;13.10;;;;;;;9.22;62.84;101909.11;5219682;56;1139073;-70
2022/04/29 00:50:25;;;;;;;28.27;12.15;;;;;;;9.18;63.09;101905.77;5218561;56;1139091;-69
2022/04/29 00:55:31;;;;;;;32.37;10.90;;;;;;;9.19;63.26;101899.55;5218318;55;1138937;-69
2022/04/29 01:00:38;;;;;;;22.07;10.17;;;;;;;9.17;63.12;101904.91;5218256;55;1139055;-68
2022/04/29 01:05:45;;;;;;;26.57;11.07;;;;;;;9.11;62.91;101896.45;5204917;55;1138968;-69
2022/04/29 01:10:51;;;;;;;21.80;9.77;;;;;;;8.98;62.67;101890.08;5178413;56;1139131;-69
2022/04/29 01:16:00;;;;;;;24.80;10.40;;;;;;;8.86;62.29;101898.59;5167254;56;1137159;-70
2022/04/29 01:21:07;;;;;;;46.20;16.27;;;;;;;8.48;62.29;101900.41;5174692;56;1139210;-71
2022/04/29 01:26:16;;;;;;;35.83;12.40;;;;;;;8.15;62.72;101898.36;5183831;56;1138925;-69
2022/04/29 01:31:25;;;;;;;33.77;13.40;;;;;;;7.91;63.49;101895.06;5174048;56;1138947;-70
2022/04/29 01:36:31;;;;;;;30.80;13.43;;;;;;;7.86;64.32;101890.45;5164848;56;1139133;-71
2022/04/29 01:41:37;;;;;;;28.27;11.90;;;;;;;7.96;64.71;101886.47;5172227;56;1139009;-70
2022/04/29 01:46:43;;;;;;;25.37;11.20;;;;;;;8.00;64.68;101893.33;5171163;56;1139036;-69
2022/04/29 01:52:02;;;;;;;22.57;10.00;;;;;;;8.08;64.67;101890.36;5129308;56;1139000;-68
2022/04/29 01:57:09;;;;;;;19.53;9.17;;;;;;;8.12;64.99;101885.32;5183656;56;1139265;-70
2022/04/29 02:02:17;;;;;;;23.37;12.03;;;;;;;8.12;64.57;101881.37;5218632;56;1136912;-70
2022/04/29 02:07:22;;;;;;;17.53;10.27;;;;;;;8.02;64.25;101876.99;5218220;56;1138963;-69
2022/04/29 02:12:28;;;;;;;19.70;9.88;;;;;;;7.80;64.10;101875.38;5217639;56;1136962;-70
2022/04/29 02:17:34;;;;;;;17.13;9.47;;;;;;;7.52;64.25;101882.31;5217014;56;1134898;-69
2022/04/29 02:22:40;;;;;;;15.83;9.17;;;;;;;7.50;65.54;101874.48;5218136;56;1134831;-69
2022/04/29 02:27:46;;;;;;;19.57;8.77;;;;;;;7.54;65.50;101876.52;5216975;56;1134984;-70
2022/04/29 02:32:52;;;;;;;14.40;8.50;;;;;;;7.43;65.64;101874.36;5216420;56;1134926;-70
2022/04/29 02:37:58;;;;;;;16.07;8.20;;;;;;;7.21;65.98;101880.98;5218134;56;1134842;-70
2022/04/29 02:43:04;;;;;;;15.83;8.17;;;;;;;7.09;66.65;101883.27;5217867;56;1135018;-68
2022/04/29 02:48:11;;;;;;;14.00;8.33;;;;;;;7.04;67.39;101876.88;5221382;55;1135152;-70
2022/04/29 02:53:17;;;;;;;13.43;7.93;;;;;;;6.96;67.58;101878.52;5223960;55;1134869;-70
2022/04/29 02:58:23;;;;;;;16.97;8.40;;;;;;;7.03;68.06;101873.84;5218044;55;1134830;-70
2022/04/29 03:03:31;;;;;;;16.93;8.90;;;;;;;7.11;68.00;101874.86;5181073;56;1136983;-70
2022/04/29 03:08:37;;;;;;;21.10;10.07;;;;;;;6.83;67.70;101877.31;5210261;56;1137222;-69
2022/04/29 03:13:43;;;;;;;32.07;10.93;;;;;;;6.58;68.00;101880.50;5213910;56;1139045;-68
2022/04/29 03:18:51;;;;;;;28.13;11.33;;;;;;;6.43;68.55;101876.70;5218184;56;1137143;-68
2022/04/29 03:23:57;;;;;;;17.00;9.23;;;;;;;6.26;69.39;101877.34;5214480;56;1136928;-69
2022/04/29 03:29:03;;;;;;;19.90;8.80;;;;;;;6.14;69.82;101875.18;5182310;56;1134957;-69
2022/04/29 03:34:09;;;;;;;17.47;8.57;;;;;;;6.07;70.42;101876.80;5109827;56;1134893;-69
2022/04/29 03:39:14;;;;;;;18.83;8.00;;;;;;;6.22;71.28;101867.03;5096955;57;1133857;-71
2022/04/29 03:44:21;;;;;;;30.73;13.87;;;;;;;6.13;70.85;101879.17;5079072;57;1132934;-68
2022/04/29 03:49:36;;;;;;;19.17;10.90;;;;;;;5.90;71.00;101875.65;5089325;57;1139241;-70
2022/04/29 03:54:43;;;;;;;19.47;10.80;;;;;;;5.68;71.65;101875.12;5129157;57;1139019;-71
2022/04/29 03:59:49;;;;;;;32.33;11.37;;;;;;;5.50;72.31;101874.84;5087789;57;1139073;-71
2022/04/29 04:04:55;;;;;;;23.37;8.33;;;;;;;5.48;72.94;101878.02;5178389;56;1141337;-69
2022/04/29 04:10:01;;;;;;;33.53;14.50;;;;;;;5.44;73.54;101880.78;5218938;56;1138996;-69
2022/04/29 04:15:08;;;;;;;43.67;14.30;;;;;;;5.49;74.40;101886.28;5218442;56;1141065;-69
2022/04/29 04:20:17;;;;;;;21.13;10.50;;;;;;;5.56;74.80;101894.78;5220164;56;1139029;-68
2022/04/29 04:25:25;;;;;;;26.17;8.27;;;;;;;5.62;75.06;101894.13;5215532;56;1138990;-70
2022/04/29 04:30:30;;;;;;;17.17;10.33;;;;;;;5.76;75.43;101898.89;5218086;56;1136934;-71
2022/04/29 04:35:36;;;;;;;23.20;9.00;;;;;;;5.81;75.47;101903.95;5218931;56;1139006;-71
2022/04/29 04:40:43;;;;;;;16.20;8.53;;;;;;;5.86;75.73;101910.77;5217454;56;1137155;-70
2022/04/29 04:45:50;;;;;;;15.17;7.70;;;;;;;5.80;75.75;101905.75;5217729;56;1136939;-70
2022/04/29 04:51:14;;;;;;;19.33;9.47;;;;;;;5.79;76.05;101914.53;5219205;56;1136863;-68
2022/04/29 04:56:21;;;;;;;19.53;9.13;;;;;;;5.77;76.47;101918.98;5217958;56;1136934;-68
2022/04/29 05:01:27;;;;;;;29.10;15.50;;;;;;;5.84;77.31;101924.84;5218597;56;1136931;-69
2022/04/29 05:06:49;;;;;;;;;;;;;;;5.86;77.56;101926.52;5182078;56;1139040;-70
2022/04/29 05:11:55;;;;;;;32.27;14.37;;;;;;;5.90;77.99;101925.53;5131280;57;972176;-71
2022/04/29 05:17:05;;;;;;;33.87;13.73;;;;;;;6.00;78.35;101928.22;5146008;56;1137155;-68
2022/04/29 05:22:16;;;;;;;46.53;16.27;;;;;;;6.22;79.24;101934.02;5123892;56;1139146;-71
2022/04/29 05:27:22;;;;;;;26.10;15.03;;;;;;;6.43;79.06;101929.25;5199028;56;1138972;-69
2022/04/29 05:32:45;;;;;;;;;;;;;;;6.77;79.39;101933.22;5168120;56;1139000;-70
2022/04/29 05:38:08;;;;;;;26.03;13.50;;;;;;;7.14;79.80;101926.91;5220888;56;970151;-79
2022/04/29 05:43:14;;;;;;;26.30;12.43;;;;;;;7.49;79.49;101924.09;5216792;56;1136928;-79
2022/04/29 05:48:20;;;;;;;23.13;13.10;;;;;;;7.89;79.06;101935.11;5216796;56;1138999;-74
2022/04/29 05:53:26;;;;;;;23.47;11.93;;;;;;;8.18;77.70;101933.81;5218306;55;1139203;-75
2022/04/29 05:58:33;;;;;;;17.98;10.25;;;;;;;8.46;77.04;101936.07;5281673;55;1136906;-74
2022/04/29 06:03:44;;;;;;;17.73;9.87;;;;;;;8.74;76.02;101931.67;5233196;55;1136951;-74
2022/04/29 06:08:50;;;;;;;22.27;10.00;;;;;;;8.86;75.11;101928.44;5174362;55;1134798;-71
2022/04/29 06:13:55;;;;;;;15.80;9.70;;;;;;;9.04;74.54;101934.63;5174683;57;1136889;-74
2022/04/29 06:19:19;;;;;;;16.32;10.23;;;;;;;9.22;73.54;101932.87;5174165;56;1134745;-76
2022/04/29 06:24:39;;;;;;;9.55;6.58;;;;;;;9.39;73.87;101931.11;4897662;57;1137003;-74
2022/04/29 06:29:46;;;;;;;23.77;7.30;;;;;;;9.77;71.68;101929.64;5135224;57;1134897;-74
2022/04/29 06:34:52;;;;;;;14.47;8.03;;;;;;;9.83;69.73;101925.33;5131577;56;1134835;-74
2022/04/29 06:39:58;;;;;;;18.70;8.30;;;;;;;10.04;69.53;101932.62;5129386;57;1226689;-76
2022/04/29 06:45:11;;;;;;;;;;;;;;;10.27;67.85;101937.55;5134246;57;1141099;-76
2022/04/29 06:50:34;;;;;;;10.43;6.53;;;;;;;10.52;68.08;101941.06;5134254;57;976416;-77
2022/04/29 06:55:56;;;;;;;11.30;6.87;;;;;;;10.78;64.68;101937.83;4894330;59;1139142;-75
2022/04/29 07:01:03;;;;;;;9.23;5.53;;;;;;;10.93;64.71;101933.46;4961853;59;1141268;-72
2022/04/29 07:06:09;;;;;;;12.93;5.83;;;;;;;11.27;64.71;101927.09;4950018;59;1139081;-74
2022/04/29 07:11:16;;;;;;;12.23;6.73;;;;;;;11.41;62.81;101922.31;4892417;58;1141128;-72
2022/04/29 07:16:30;;;;;;;12.47;7.00;;;;;;;11.52;63.89;101923.38;4891868;59;1141035;-74
2022/04/29 07:21:47;;;;;;;7.77;6.03;;;;;;;11.73;64.37;101924.38;4923677;59;1141114;-77
2022/04/29 07:26:53;;;;;;;12.73;6.77;;;;;;;11.98;62.66;101930.78;4972766;59;1139108;-75
2022/04/29 07:31:59;;;;;;;14.43;6.87;;;;;;;12.33;62.92;101931.27;5133485;57;1141014;-75
2022/04/29 07:42:35;;;;;;;9.40;5.20;;;;;;;12.52;61.83;101924.33;5133729;57;1141140;-74
2022/04/29 07:47:41;;;;;;;10.90;5.67;;;;;;;12.80;60.46;101914.13;5133597;57;1138977;-75
2022/04/29 07:52:49;;;;;;;8.20;5.47;;;;;;;12.96;62.44;101918.81;4996964;58;1141240;-75
2022/04/29 07:57:56;;;;;;;16.07;5.10;;;;;;;13.14;57.59;101918.05;5047511;58;1138995;-77
2022/04/29 08:03:02;;;;;;;6.70;4.73;;;;;;;12.99;55.28;101911.09;5052471;58;1141142;-77
2022/04/29 08:08:09;;;;;;;12.53;4.93;;;;;;;12.93;55.64;101916.36;5207076;56;1138933;-76
2022/04/29 08:13:16;;;;;;;9.97;4.60;;;;;;;13.09;57.76;101914.02;5211772;55;1141049;-72
2022/04/29 08:18:32;;;;;;;11.47;5.83;;;;;;;13.21;54.50;101903.94;5218431;55;1138968;-76
2022/04/29 08:23:38;;;;;;;6.67;4.40;;;;;;;13.15;54.39;101906.98;5222050;55;1141039;-75
2022/04/29 08:28:44;;;;;;;8.57;3.70;;;;;;;13.19;52.60;101910.68;5222057;55;1136927;-76
2022/04/29 08:33:49;;;;;;;11.10;4.37;;;;;;;13.14;51.25;101916.73;5222138;55;1137149;-77
2022/04/29 08:38:56;;;;;;;8.10;3.90;;;;;;;13.20;51.06;101909.73;5222241;55;1139026;-76
2022/04/29 08:44:04;;;;;;;9.03;5.80;;;;;;;13.35;50.96;101898.08;5222235;55;1136902;-76
2022/04/29 08:49:20;;;;;;;14.77;5.27;;;;;;;13.51;51.18;101901.02;5221475;55;1136893;-75
2022/04/29 08:59:49;;;;;;;;;;;;;;;13.73;50.19;101894.15;5222366;56;1137481;-74
2022/04/29 09:04:57;;;;;;;22.63;6.40;;;;;;;13.84;51.18;101892.07;5221205;56;974239;-80
2022/04/29 09:10:07;;;;;;;12.60;6.10;;;;;;;14.04;51.11;101886.22;5218520;56;1136901;-76
2022/04/29 09:15:15;;;;;;;10.33;5.57;;;;;;;14.16;48.88;101886.30;5213995;56;1138950;-79
2022/04/29 09:20:23;;;;;;;10.00;3.87;;;;;;;14.28;52.02;101890.74;5213921;56;1139097;-71
2022/04/29 09:25:35;;;;;;;5.90;3.50;;;;;;;14.64;47.54;101889.47;5218389;56;1137070;-72
2022/04/29 09:30:59;;;;;;;5.83;3.17;;;;;;;14.86;49.98;101875.89;5214392;56;1138970;-76
2022/04/29 09:36:27;;;;;;;4.77;2.97;;;;;;;15.12;47.99;101874.82;5212705;56;1139062;-71
2022/04/29 09:41:34;;;;;;;7.90;2.77;;;;;;;15.27;45.60;101879.48;5214667;56;1138926;-72
2022/04/29 09:46:39;;;;;;;5.63;1.80;;;;;;;15.31;48.10;101873.77;5216999;56;1138967;-76
2022/04/29 09:51:51;;;;;;;6.07;1.40;;;;;;;15.38;43.12;101874.17;5222146;55;1138949;-76
2022/04/29 09:57:18;;;;;;;4.47;1.67;;;;;;;15.33;41.85;101854.52;5261774;55;1139133;-80
2022/04/29 10:02:27;;;;;;;4.47;1.10;;;;;;;15.53;43.52;101859.66;5258876;55;1139199;-77
2022/04/29 10:07:36;;;;;;;4.47;1.57;;;;;;;15.82;42.23;101862.77;5073501;57;1138921;-76
2022/04/29 10:12:49;;;;;;;3.10;1.77;;;;;;;15.89;40.42;101854.63;5202810;55;1139116;-76
2022/04/29 10:24:01;;;;;;;3.70;1.00;;;;;;;16.17;41.13;101848.83;5004446;57;1139011;-76
2022/04/29 10:29:08;;;;;;;3.20;1.30;;;;;;;16.32;39.44;101846.74;5194958;55;1136913;-78
2022/04/29 10:34:31;;;;;;;7.20;1.40;;;;;;;16.41;38.11;101845.98;5239103;56;1136933;-78
2022/04/29 10:39:39;;;;;;;1.93;1.20;;;;;;;16.70;40.38;101836.95;5286302;55;1137017;-75
2022/04/29 10:45:02;;;;;;;4.50;1.30;;;;;;;17.09;42.15;101830.62;5310480;55;1136891;-78
2022/04/29 10:50:34;;;;;;;1.57;1.17;;;;;;;17.31;40.95;101831.81;5310815;55;1136942;-77
2022/04/29 10:56:18;;;;;;;1.87;1.27;;;;;;;17.66;41.62;101822.14;5304223;55;1138986;-73
2022/04/29 11:01:31;;;;;;;1.40;1.30;;;;;;;17.87;41.61;101826.13;5306628;55;1139082;-78
2022/04/29 11:06:46;;;;;;;3.17;1.20;;;;;;;17.73;38.38;101825.96;5306713;55;1138989;-75
2022/04/29 11:11:48;;;;;;;2.70;0.93;;;;;;;17.47;37.50;101827.34;5306435;55;1139210;-73
2022/04/29 11:17:11;;;;;;;3.00;0.50;;;;;;;17.38;37.15;101816.11;5143505;56;1139008;-77
2022/04/29 11:27:45;;;;;;;2.90;1.20;;;;;;;17.66;37.50;101806.09;5218048;56;1139019;-74
2022/04/29 11:32:56;;;;;;;17.87;1.10;;;;;;;17.99;39.47;101798.77;5216098;56;1139154;-76
2022/04/29 11:38:03;;;;;;;1.37;0.70;;;;;;;18.22;37.97;101801.07;5216769;56;1141164;-78
2022/04/29 11:43:10;;;;;;;1.07;0.60;;;;;;;18.53;36.89;101799.64;5218810;56;1139111;-73
2022/04/29 11:48:16;;;;;;;0.80;0.57;;;;;;;18.56;36.66;101781.46;5237423;55;1139004;-77
2022/04/29 11:53:22;;;;;;;1.73;1.20;;;;;;;18.69;31.73;101779.03;5307284;55;1139194;-77
2022/04/29 11:58:33;;;;;;;1.80;0.93;;;;;;;18.66;31.23;101781.98;5307126;55;1138806;-79
2022/04/29 12:03:43;;;;;;;1.37;0.68;;;;;;;18.56;31.13;101772.58;5306231;55;1138952;-78
2022/04/29 12:08:49;;;;;;;4.13;0.70;;;;;;;18.56;31.48;101766.73;5306053;55;1138869;-77
2022/04/29 12:14:19;;;;;;;3.14;0.98;;;;;;;18.50;31.89;101756.55;5251838;55;1138930;-77
2022/04/29 12:19:25;;;;;;;2.87;0.70;;;;;;;18.64;34.20;101752.64;5252262;55;1138989;-75
2022/04/29 12:24:45;;;;;;;8.35;3.83;;;;;;;18.91;35.63;101748.77;5252216;55;1136864;-78
2022/04/29 12:34:48;;;;;;;5.70;4.47;;;;;;;19.17;35.10;101749.48;5252105;55;1136914;-74
2022/04/29 12:35:16;;;;;;;13.50;1.60;;;;;;;19.33;33.72;101743.02;5249789;55;1136859;-76
2022/04/29 12:40:30;;;;;;;4.25;0.80;;;;;;;19.45;33.38;101730.27;5252088;55;1139110;-70
2022/04/29 12:45:35;;;;;;;4.78;0.90;;;;;;;19.64;35.02;101721.67;5247558;55;1136930;-74
2022/04/29 12:50:45;;;;;;;1.62;0.80;;;;;;;19.91;35.20;101716.80;5237169;55;1136869;-74
2022/04/29 12:55:56;;;;;;;0.80;0.80;;;;;;;20.15;35.53;101710.02;5305715;55;1136841;-74
2022/04/29 13:01:13;;;;;;;11.05;0.95;;;;;;;20.31;34.52;101701.62;5207116;56;1135021;-72
2022/04/29 13:06:23;;;;;;;1.15;0.98;;;;;;;19.99;32.03;101694.08;5177736;56;1150772;-73
2022/04/29 13:11:30;;;;;;;6.33;1.07;;;;;;;19.99;33.71;101684.67;5222662;55;1139002;-74
2022/04/29 13:16:37;;;;;;;3.17;1.10;;;;;;;20.10;33.94;101689.47;5221971;56;1139166;-71
2022/04/29 13:21:43;;;;;;;15.08;1.80;;;;;;;20.23;34.40;101690.78;5221925;56;1139231;-72
2022/04/29 13:26:49;;;;;;;11.70;1.52;;;;;;;20.42;34.53;101672.84;5248859;56;1141050;-73
2022/04/29 13:31:55;;;;;;;5.87;2.33;;;;;;;20.44;33.57;101670.35;5278609;55;1141309;-73
2022/04/29 13:37:00;;;;;;;2.67;1.02;;;;;;;20.49;32.70;101675.24;5278631;56;1139084;-74
2022/04/29 13:42:07;;;;;;;3.98;0.95;;;;;;;20.24;32.64;101675.50;5278652;55;1138986;-74
2022/04/29 13:47:15;;;;;;;2.75;1.57;;;;;;;20.20;32.07;101662.88;5278624;55;1139128;-78
2022/04/29 13:57:44;;;;;;;9.13;1.00;;;;;;;20.10;33.43;101651.37;5310634;55;1141093;-74
2022/04/29 14:02:50;;;;;;;9.43;1.85;;;;;;;20.47;33.15;101652.55;5303309;55;1139027;-73
2022/04/29 14:07:56;;;;;;;3.45;1.82;;;;;;;20.75;32.82;101644.38;5262701;55;1138909;-77
2022/04/29 14:13:03;;;;;;;22.17;1.85;;;;;;;20.71;31.91;101637.13;5281696;55;1139211;-74
2022/04/29 14:18:09;;;;;;;2.98;1.12;;;;;;;20.47;33.90;101647.70;5266050;55;1141089;-75
2022/04/29 14:23:15;;;;;;;7.30;1.62;;;;;;;20.44;32.92;101635.42;5255230;55;1139026;-73
2022/04/29 14:28:20;;;;;;;7.05;1.17;;;;;;;20.35;33.57;101634.95;5224684;55;1138992;-77
2022/04/29 14:33:27;;;;;;;10.82;1.50;;;;;;;20.45;33.42;101634.42;5246088;55;1139000;-72
2022/04/29 14:38:33;;;;;;;9.38;1.20;;;;;;;20.42;33.66;101637.91;5216181;56;1141136;-74
2022/04/29 14:43:39;;;;;;;11.38;2.27;;;;;;;20.35;33.80;101636.30;5230875;55;1139130;-76
2022/04/29 14:48:45;;;;;;;14.60;2.35;;;;;;;20.45;33.99;101629.55;5239956;55;1141185;-75
2022/04/29 14:53:51;;;;;;;17.40;1.50;;;;;;;20.49;34.05;101622.34;5246931;55;1141073;-75
2022/04/29 14:58:58;;;;;;;14.73;2.10;;;;;;;20.40;33.56;101621.94;5250402;55;1141231;-74
2022/04/29 15:04:07;;;;;;;9.55;2.02;;;;;;;20.39;33.52;101617.56;5240023;55;1140945;-77
2022/04/29 15:19:49;;;;;;;1.50;1.12;;;;;;;20.34;34.64;101609.08;5203578;55;1143553;-72
2022/04/29 15:24:55;;;;;;;8.95;1.72;;;;;;;20.40;33.72;101601.79;5207306;55;1138990;-75
2022/04/29 15:30:01;;;;;;;10.35;1.90;;;;;;;20.40;33.96;101604.47;5195675;56;1138977;-71
2022/04/29 15:35:08;;;;;;;3.85;1.90;;;;;;;20.36;34.15;101599.91;5217903;56;1141007;-73
2022/04/29 15:40:14;;;;;;;5.42;1.90;;;;;;;20.30;33.49;101594.30;5155514;56;1137251;-74
2022/04/29 15:45:20;;;;;;;9.45;3.17;;;;;;;20.30;33.70;101601.02;5078497;57;1136880;-74
2022/04/29 15:50:27;;;;;;;2.95;1.00;;;;;;;20.19;34.76;101598.55;5080269;57;1136928;-75
2022/04/29 15:55:35;;;;;;;18.27;1.67;;;;;;;20.09;35.38;101595.12;5080253;57;1137154;-76
2022/04/29 16:00:42;;;;;;;28.23;15.18;;;;;;;20.14;35.23;101589.63;5185907;56;1139053;-76
2022/04/29 16:05:48;;;;;;;21.48;4.70;;;;;;;20.22;34.12;101591.53;5227660;55;1141188;-73
2022/04/29 16:10:54;;;;;;;6.70;2.30;;;;;;;20.20;34.21;101589.00;5290004;55;1138984;-75
2022/04/29 16:16:00;;;;;;;3.27;1.20;;;;;;;20.17;34.90;101583.08;5236371;55;1136867;-73
2022/04/29 16:21:05;;;;;;;1.52;1.12;;;;;;;19.98;34.81;101580.94;5235471;55;1136919;-72
2022/04/29 16:26:13;;;;;;;20.27;1.47;;;;;;;19.87;34.95;101582.98;5255128;55;1137147;-71
2022/04/29 16:31:18;;;;;;;8.60;2.37;;;;;;;19.85;35.18;101585.01;5218738;55;1138908;-76
2022/04/29 16:36:24;;;;;;;9.15;2.85;;;;;;;19.82;35.47;101587.49;5218891;55;1137402;-74
2022/04/29 16:41:30;;;;;;;3.72;1.52;;;;;;;19.92;35.41;101586.91;5218663;55;1136868;-75
2022/04/29 16:46:36;;;;;;;21.55;4.08;;;;;;;19.88;34.86;101584.67;5218696;55;1137083;-73
2022/04/29 16:51:41;;;;;;;6.47;1.90;;;;;;;19.83;35.52;101585.66;5218863;55;1139242;-73
2022/04/29 17:02:11;;;;;;;22.37;1.87;;;;;;;19.70;35.49;101594.59;5219146;55;1139184;-74
2022/04/29 17:07:16;;;;;;;10.07;2.57;;;;;;;19.69;35.54;101588.88;5216476;56;1141129;-72
2022/04/29 17:12:22;;;;;;;18.27;2.83;;;;;;;19.57;35.17;101593.59;5215253;56;1141319;-74
2022/04/29 17:17:28;;;;;;;24.90;4.20;;;;;;;19.36;35.15;101591.16;5215166;56;1141039;-73
2022/04/29 17:22:35;;;;;;;14.15;2.62;;;;;;;19.23;35.29;101586.16;5253090;55;1141203;-72
2022/04/29 17:27:41;;;;;;;8.20;2.90;;;;;;;19.06;35.54;101584.25;5271329;55;1141036;-77
2022/04/29 17:32:49;;;;;;;20.15;4.03;;;;;;;18.89;35.61;101589.89;5259235;55;1139105;-73
2022/04/29 17:37:55;;;;;;;14.43;5.80;;;;;;;18.72;35.63;101589.81;5283801;55;1141070;-73
2022/04/29 17:43:01;;;;;;;24.70;7.22;;;;;;;18.54;36.11;101592.36;5282232;55;1141186;-72
2022/04/29 17:48:08;;;;;;;59.77;13.13;;;;;;;18.34;36.42;101596.89;5250111;55;1141071;-76
2022/04/29 17:53:13;;;;;;;57.43;12.00;;;;;;;18.15;36.66;101600.95;5277359;55;1143172;-73
2022/04/29 17:58:20;;;;;;;129.20;58.42;;;;;;;17.96;36.88;101601.79;5307953;55;1143265;-72
2022/04/29 18:03:27;;;;;;;50.92;13.83;;;;;;;17.78;37.30;101604.80;5299597;55;1145249;-73
2022/04/29 18:08:34;;;;;;;42.53;8.90;;;;;;;17.59;37.46;101611.77;5251496;55;1143085;-78
2022/04/29 18:13:40;;;;;;;19.83;6.80;;;;;;;17.41;37.78;101605.91;5253484;55;1141016;-74
2022/04/29 18:18:46;;;;;;;23.07;8.13;;;;;;;17.22;37.94;101616.89;5236960;55;1141176;-76
2022/04/29 18:23:52;;;;;;;40.10;10.63;;;;;;;17.13;38.43;101627.53;5290527;55;1141049;-77
2022/04/29 18:28:58;;;;;;;206.10;101.93;;;;;;;17.09;39.00;101632.32;5306820;55;1143309;-72
2022/04/29 18:34:06;;;;;;;309.37;154.73;;;;;;;17.02;39.54;101631.15;5277269;55;1147311;-76
2022/04/29 18:39:12;;;;;;;128.47;55.70;;;;;;;16.86;39.79;101632.12;5306859;55;1147421;-70
2022/04/29 18:44:19;;;;;;;78.47;18.73;;;;;;;16.65;40.22;101633.98;5300039;55;1145337;-72
2022/04/29 18:49:25;;;;;;;191.63;69.43;;;;;;;16.47;40.72;101637.20;5262713;55;1143084;-73
2022/04/29 18:54:31;;;;;;;263.03;87.00;;;;;;;16.41;41.34;101640.86;5233331;55;1145298;-77
2022/04/29 18:59:37;;;;;;;306.23;104.47;;;;;;;16.46;41.63;101654.20;5276462;55;1145370;-74
2022/04/29 19:04:44;;;;;;;253.53;76.63;;;;;;;16.47;41.98;101654.56;5233867;55;1147462;-73
2022/04/29 19:09:50;;;;;;;204.47;59.63;;;;;;;16.27;41.66;101657.20;5293768;55;1145269;-75
2022/04/29 19:14:56;;;;;;;160.43;36.33;;;;;;;16.18;42.66;101654.33;5233024;55;1145466;-74
2022/04/29 19:20:02;;;;;;;125.13;30.27;;;;;;;16.18;43.01;101658.34;5255877;55;1145214;-78
2022/04/29 19:25:08;;;;;;;158.53;38.40;;;;;;;16.05;43.42;101659.45;5265879;55;1145488;-75
2022/04/29 19:30:15;;;;;;;119.98;33.26;;;;;;;15.90;43.61;101654.04;5248421;55;1145460;-75
2022/04/29 19:35:22;;;;;;;137.93;43.20;;;;;;;15.85;44.05;101654.92;5236866;55;1145282;-73
2022/04/29 19:40:33;;;;;;;133.67;55.20;;;;;;;15.80;44.35;101652.14;5236769;55;1145272;-72
2022/04/29 19:45:41;;;;;;;133.70;68.23;;;;;;;15.73;44.65;101654.11;5239529;55;1145168;-71
2022/04/29 19:50:47;;;;;;;100.70;46.80;;;;;;;15.57;44.67;101658.98;5237425;55;1145235;-77
2022/04/29 19:55:53;;;;;;;111.73;52.80;;;;;;;15.34;44.73;101670.95;5233866;55;1145223;-77
2022/04/29 20:01:01;;;;;;;128.57;57.63;;;;;;;15.26;45.49;101665.39;5234715;55;1145431;-76
2022/04/29 20:06:07;;;;;;;117.40;49.73;;;;;;;15.15;45.96;101666.70;5219758;55;1143147;-76
2022/04/29 20:11:16;;;;;;;121.53;45.20;;;;;;;15.06;46.57;101667.44;5241617;55;1143216;-76
2022/04/29 20:16:24;;;;;;;139.07;47.23;;;;;;;14.92;46.82;101665.00;5246166;55;1143159;-75
2022/04/29 20:21:31;;;;;;;132.70;46.57;;;;;;;14.74;47.08;101661.94;5235640;55;1143189;-76
2022/04/29 20:26:37;;;;;;;148.57;60.23;;;;;;;14.41;47.35;101654.70;5230924;55;1143172;-74
2022/04/29 20:31:43;;;;;;;132.40;58.67;;;;;;;14.30;48.44;101659.96;5242563;55;1143207;-74
2022/04/29 20:36:49;;;;;;;188.50;95.80;;;;;;;14.17;48.40;101659.19;5227660;55;1143161;-75
2022/04/29 20:47:20;;;;;;;86.77;34.90;;;;;;;14.06;48.99;101677.25;5219617;56;1143117;-74
2022/04/29 20:52:27;;;;;;;89.63;34.40;;;;;;;13.91;49.09;101673.05;5235946;55;1141054;-74
2022/04/29 20:57:33;;;;;;;53.17;22.40;;;;;;;13.82;49.45;101665.28;5244117;55;1141153;-72
2022/04/29 21:02:41;;;;;;;86.23;32.83;;;;;;;13.61;49.46;101676.12;5256555;55;1141090;-75
2022/04/29 21:07:47;;;;;;;72.05;26.07;;;;;;;13.20;50.03;101676.42;5251099;55;1139010;-73
2022/04/29 21:12:53;;;;;;;61.07;24.97;;;;;;;13.02;50.52;101680.70;5171984;56;1139080;-76
2022/04/29 21:18:00;;;;;;;58.83;23.85;;;;;;;12.92;51.36;101678.31;5184089;56;1143035;-76
2022/04/29 21:23:06;;;;;;;57.80;23.70;;;;;;;12.97;52.04;101684.17;5076962;56;1143332;-72
2022/04/29 21:28:11;;;;;;;98.90;29.03;;;;;;;12.82;51.84;101690.53;5197027;56;1143148;-73
2022/04/29 21:33:17;;;;;;;65.93;26.07;;;;;;;12.71;52.28;101690.39;5194702;56;1143126;-71
2022/04/29 21:38:23;;;;;;;72.33;28.83;;;;;;;12.67;52.77;101688.45;5219228;56;1143031;-77
2022/04/29 21:43:29;;;;;;;60.57;22.57;;;;;;;12.66;53.06;101698.69;5219458;56;1143174;-72
2022/04/29 21:48:35;;;;;;;42.23;16.70;;;;;;;12.62;53.05;101697.19;5219318;56;1143196;-75
2022/04/29 21:53:41;;;;;;;44.27;16.47;;;;;;;12.64;53.19;101701.06;5219447;56;1143122;-78
2022/04/29 21:58:47;;;;;;;27.27;12.20;;;;;;;12.61;53.03;101706.57;5219422;55;1143127;-75
2022/04/29 22:03:52;;;;;;;37.80;15.40;;;;;;;12.45;52.93;101709.88;5219400;56;1143143;-76
2022/04/29 22:08:59;;;;;;;43.30;16.73;;;;;;;12.25;53.22;101706.73;5203949;56;1143201;-74
2022/04/29 22:14:05;;;;;;;55.53;22.53;;;;;;;12.11;53.80;101707.26;5122511;57;1143371;-72
2022/04/29 22:19:10;;;;;;;36.93;13.03;;;;;;;12.08;54.02;101707.45;5077620;57;1143200;-75
2022/04/29 22:24:16;;;;;;;27.37;10.53;;;;;;;11.92;53.88;101699.16;5077544;57;1143423;-75
2022/04/29 22:29:22;;;;;;;22.37;8.00;;;;;;;11.86;54.13;101696.07;5077606;57;1143197;-73
2022/04/29 22:34:30;;;;;;;23.23;7.60;;;;;;;11.80;54.33;101701.28;5077639;57;1141287;-72
2022/04/29 22:39:35;;;;;;;15.10;6.23;;;;;;;11.76;54.34;101697.15;5077688;57;1141129;-75
2022/04/29 22:44:42;;;;;;;17.00;7.60;;;;;;;11.67;54.63;101696.35;5077646;57;1141316;-74
2022/04/29 22:49:48;;;;;;;23.03;6.17;;;;;;;11.66;54.93;101703.08;5077605;57;1141132;-73
2022/04/29 22:54:54;;;;;;;15.77;7.20;;;;;;;11.65;54.89;101707.52;5077686;57;1141100;-74
2022/04/29 23:00:00;;;;;;;18.20;6.87;;;;;;;11.57;54.70;101703.20;5077487;57;1141092;-76
2022/04/29 23:05:09;;;;;;;20.17;6.77;;;;;;;11.50;55.13;101692.59;5099259;57;1141108;-75
2022/04/29 23:10:20;;;;;;;25.97;7.37;;;;;;;11.46;55.46;101693.24;5153981;56;1141122;-71
2022/04/29 23:15:25;;;;;;;51.63;22.10;;;;;;;11.35;55.21;101694.87;5151242;57;1141214;-73
2022/04/29 23:20:32;;;;;;;72.70;25.73;;;;;;;11.14;55.33;101695.73;5151078;57;1143157;-77
2022/04/29 23:25:43;;;;;;;63.17;26.77;;;;;;;10.86;55.63;101692.56;5151135;57;1143374;-77
2022/04/29 23:30:50;;;;;;;59.93;25.63;;;;;;;10.44;56.23;101702.10;5151144;57;1143111;-76
2022/04/29 23:35:56;;;;;;;42.77;19.57;;;;;;;9.87;57.38;101699.17;5151437;57;1143173;-73
2022/04/29 23:41:02;;;;;;;52.30;21.57;;;;;;;9.57;58.49;101701.33;5151864;57;1139129;-74
2022/04/29 23:46:08;;;;;;;50.33;20.90;;;;;;;9.69;59.59;101691.41;5151845;57;1138977;-73
2022/04/29 23:51:14;;;;;;;35.92;15.48;;;;;;;9.87;59.89;101683.78;5151890;57;1138900;-75
2022/04/29 23:56:20;;;;;;;27.53;12.27;;;;;;;10.07;60.22;101683.52;5151721;57;1141104;-74
